Time;durP1;ratioP1;P1;durP2;ratioP2;P2;SDS_P1;SDS_P2;PMS_P1;PMS_P2;Temp;Humidity;BMP_temperature;BMP_pressure;BME280_temperature;BME280_humidity;BME280_pressure;Samples;Min_cycle;Max_cycle;Signal;HPM_P1;HPM_P2
2023/05/19 00:01:47;;;;;;;1.83;1.70;;;18.10;49.00;;;;;;5066385;28;46327;-71
2023/05/19 00:04:14;;;;;;;1.58;1.42;;;18.10;48.90;;;;;;5066891;28;45304;-71
2023/05/19 00:06:41;;;;;;;3.25;1.50;;;18.10;49.00;;;;;;5067059;28;45347;-71
2023/05/19 00:09:08;;;;;;;1.73;1.58;;;18.10;49.00;;;;;;5066972;28;45340;-71
2023/05/19 00:11:36;;;;;;;1.88;1.42;;;18.10;49.00;;;;;;5066778;28;47597;-71
2023/05/19 00:14:04;;;;;;;2.38;1.88;;;18.00;49.00;;;;;;5066719;28;45201;-71
2023/05/19 00:16:31;;;;;;;1.45;1.35;;;18.00;49.10;;;;;;5067075;28;45299;-72
2023/05/19 00:19:00;;;;;;;1.77;1.50;;;18.10;49.10;;;;;;5067187;28;45240;-71
2023/05/19 00:21:27;;;;;;;1.92;1.23;;;18.00;49.10;;;;;;5066767;28;46434;-70
2023/05/19 00:23:54;;;;;;;1.95;1.55;;;18.00;49.10;;;;;;5066763;28;45306;-72
2023/05/19 00:26:21;;;;;;;1.90;1.40;;;18.00;49.10;;;;;;5066454;28;45229;-71
2023/05/19 00:28:48;;;;;;;1.77;1.58;;;18.00;49.20;;;;;;5066791;28;45359;-72
2023/05/19 00:31:15;;;;;;;2.08;1.63;;;18.00;49.10;;;;;;5066516;28;46424;-72
2023/05/19 00:33:41;;;;;;;2.15;1.70;;;18.00;49.20;;;;;;5066650;28;45165;-72
2023/05/19 00:36:10;;;;;;;1.90;1.40;;;18.00;49.20;;;;;;5066600;28;45184;-72
2023/05/19 00:38:37;;;;;;;1.60;1.50;;;18.00;49.20;;;;;;5066836;28;45324;-72
2023/05/19 00:41:04;;;;;;;2.80;1.70;;;18.00;49.20;;;;;;5066315;28;45292;-72
2023/05/19 00:43:33;;;;;;;1.60;1.50;;;18.00;49.30;;;;;;5066632;28;45270;-71
2023/05/19 00:45:59;;;;;;;2.38;1.67;;;18.00;49.30;;;;;;5066006;28;45291;-71
2023/05/19 00:48:26;;;;;;;1.77;1.20;;;18.00;49.90;;;;;;5066622;28;45301;-70
2023/05/19 00:50:53;;;;;;;1.50;1.40;;;18.00;49.30;;;;;;5066338;28;45305;-71
2023/05/19 00:53:21;;;;;;;2.20;1.60;;;17.90;49.30;;;;;;5066198;28;45371;-71
2023/05/19 00:55:48;;;;;;;1.95;1.65;;;17.90;49.30;;;;;;5066455;28;45218;-71
2023/05/19 00:58:15;;;;;;;2.83;1.83;;;17.90;49.30;;;;;;5066470;28;45419;-71
2023/05/19 01:00:42;;;;;;;1.55;1.45;;;17.90;49.30;;;;;;5066117;28;46389;-71
2023/05/19 01:03:10;;;;;;;1.70;1.40;;;17.90;49.30;;;;;;5066155;28;45315;-71
2023/05/19 01:05:40;;;;;;;5.05;1.92;;;17.90;49.40;;;;;;5066223;28;45188;-71
2023/05/19 01:08:07;;;;;;;2.30;1.50;;;17.90;49.30;;;;;;5066576;28;45404;-71
2023/05/19 01:10:35;;;;;;;2.08;1.35;;;17.90;49.40;;;;;;5065918;28;45311;-71
2023/05/19 01:13:02;;;;;;;1.73;1.35;;;17.90;49.40;;;;;;5065993;28;45197;-72
2023/05/19 01:15:29;;;;;;;1.30;1.20;;;17.90;49.40;;;;;;5066179;28;45187;-73
2023/05/19 01:17:59;;;;;;;1.60;1.45;;;17.90;49.40;;;;;;5066327;28;45553;-72
2023/05/19 01:20:29;;;;;;;1.30;1.20;;;17.90;49.50;;;;;;5065842;28;46400;-72
2023/05/19 01:23:18;;;;;;;2.05;1.33;;;17.80;49.40;;;;;;5065978;28;45170;-71
2023/05/19 01:26:18;;;;;;;3.17;1.48;;;17.90;49.40;;;;;;5059919;28;45328;-72
2023/05/19 01:29:07;;;;;;;1.30;1.20;;;17.90;49.40;;;;;;5066058;28;45384;-72
2023/05/19 01:31:36;;;;;;;1.67;1.35;;;17.80;49.40;;;;;;5065632;28;46681;-72
2023/05/19 01:34:03;;;;;;;1.67;1.52;;;17.80;49.50;;;;;;5065828;28;45248;-72
2023/05/19 01:36:30;;;;;;;1.85;1.40;;;17.80;49.50;;;;;;5066002;28;45399;-72
2023/05/19 01:39:00;;;;;;;1.25;1.15;;;17.80;49.50;;;;;;5068332;28;45451;-71
2023/05/19 01:41:28;;;;;;;1.50;1.40;;;17.80;49.50;;;;;;5048917;28;47308;-72
2023/05/19 01:43:55;;;;;;;1.20;1.10;;;17.80;49.50;;;;;;5049418;28;45175;-72
2023/05/19 01:46:22;;;;;;;2.88;1.30;;;17.80;49.50;;;;;;5049283;28;45348;-71
2023/05/19 01:48:50;;;;;;;1.67;1.58;;;17.80;49.50;;;;;;5067606;28;45286;-72
2023/05/19 01:51:17;;;;;;;1.92;1.35;;;17.80;49.60;;;;;;5068916;28;45215;-71
2023/05/19 01:53:43;;;;;;;2.97;1.67;;;17.80;49.60;;;;;;5068980;28;45128;-72
2023/05/19 01:56:10;;;;;;;1.73;1.48;;;17.70;49.60;;;;;;5068760;28;45312;-72
2023/05/19 01:58:40;;;;;;;1.65;1.50;;;17.70;49.60;;;;;;5069290;28;45356;-71
2023/05/19 02:01:11;;;;;;;1.95;1.48;;;17.70;49.60;;;;;;5068490;28;45472;-72
2023/05/19 02:03:47;;;;;;;1.58;1.40;;;17.70;49.60;;;;;;5068919;28;45262;-72
2023/05/19 02:06:21;;;;;;;1.27;1.17;;;17.70;49.70;;;;;;5068955;28;45306;-71
2023/05/19 02:08:51;;;;;;;1.25;1.15;;;17.70;49.60;;;;;;5069151;28;45252;-71
2023/05/19 02:11:22;;;;;;;1.58;1.48;;;17.70;49.70;;;;;;5068826;28;45307;-71
2023/05/19 02:13:50;;;;;;;2.08;1.50;;;17.70;49.70;;;;;;5068805;28;45326;-72
2023/05/19 02:16:16;;;;;;;1.55;1.45;;;17.70;49.70;;;;;;5069101;28;45365;-71
2023/05/19 02:18:44;;;;;;;1.73;1.60;;;17.70;49.70;;;;;;5068985;28;45170;-72
2023/05/19 02:21:12;;;;;;;2.33;1.40;;;17.70;49.70;;;;;;5068671;28;46575;-71
2023/05/19 02:23:40;;;;;;;2.03;1.55;;;17.70;49.80;;;;;;5068755;28;45331;-71
2023/05/19 02:26:07;;;;;;;1.75;1.30;;;17.70;49.70;;;;;;5068700;28;45180;-71
2023/05/19 02:28:35;;;;;;;3.00;1.27;;;17.70;49.80;;;;;;5068862;28;45169;-72
2023/05/19 02:31:04;;;;;;;2.30;1.60;;;17.70;49.80;;;;;;5068526;28;48029;-72
2023/05/19 02:33:31;;;;;;;1.25;1.15;;;17.70;49.80;;;;;;5068328;28;45336;-72
2023/05/19 02:35:58;;;;;;;2.13;1.70;;;17.60;49.80;;;;;;5068721;28;45400;-71
2023/05/19 02:38:24;;;;;;;1.23;1.10;;;17.70;49.90;;;;;;5068750;28;45217;-72
2023/05/19 02:40:53;;;;;;;1.65;1.27;;;17.60;49.80;;;;;;5068250;28;45543;-72
2023/05/19 02:43:19;;;;;;;1.73;1.25;;;17.60;49.80;;;;;;5068159;28;45255;-72
2023/05/19 02:45:46;;;;;;;2.17;1.35;;;17.60;50.40;;;;;;5068297;28;45316;-72
2023/05/19 02:48:13;;;;;;;1.75;1.45;;;17.60;49.80;;;;;;5068078;28;45395;-72
2023/05/19 02:50:40;;;;;;;1.30;1.02;;;17.60;49.90;;;;;;5067758;28;45186;-72
2023/05/19 02:53:06;;;;;;;1.77;1.30;;;17.60;49.90;;;;;;5068259;28;45245;-72
2023/05/19 02:55:33;;;;;;;1.48;1.35;;;17.60;50.00;;;;;;5068265;28;45253;-72
2023/05/19 02:58:01;;;;;;;2.03;1.42;;;17.60;50.00;;;;;;5068703;28;45408;-72
2023/05/19 03:00:28;;;;;;;1.55;1.20;;;17.50;50.00;;;;;;5067861;28;45271;-71
2023/05/19 03:02:55;;;;;;;2.20;1.40;;;17.50;50.00;;;;;;5067994;28;45190;-72
2023/05/19 03:05:22;;;;;;;1.10;1.00;;;17.50;50.00;;;;;;5068100;28;45566;-71
2023/05/19 03:07:48;;;;;;;1.65;1.27;;;17.50;50.00;;;;;;5068118;28;45229;-72
2023/05/19 03:10:15;;;;;;;1.52;1.30;;;17.50;50.00;;;;;;5068014;28;45304;-72
2023/05/19 03:12:42;;;;;;;1.40;1.30;;;17.50;50.00;;;;;;5067733;28;45250;-72
2023/05/19 03:15:13;;;;;;;1.92;1.30;;;17.50;50.00;;;;;;5067979;28;45221;-71
2023/05/19 03:17:40;;;;;;;1.35;1.25;;;17.50;50.00;;;;;;5067935;28;45645;-72
2023/05/19 03:20:09;;;;;;;1.60;1.30;;;17.50;50.00;;;;;;5067745;28;45393;-72
2023/05/19 03:22:36;;;;;;;1.52;1.25;;;17.50;50.60;;;;;;5067778;28;45327;-72
2023/05/19 03:25:03;;;;;;;2.63;1.50;;;17.50;50.00;;;;;;5068026;28;45319;-71
2023/05/19 03:27:30;;;;;;;2.45;1.20;;;17.40;50.00;;;;;;5067934;28;45403;-72
2023/05/19 03:29:57;;;;;;;1.42;1.33;;;17.40;50.00;;;;;;5067540;28;45392;-72
2023/05/19 03:32:25;;;;;;;1.17;1.10;;;17.40;50.00;;;;;;5067150;28;45148;-72
2023/05/19 03:34:52;;;;;;;3.00;1.48;;;17.40;50.10;;;;;;5067670;28;45264;-72
2023/05/19 03:37:18;;;;;;;1.80;1.48;;;17.40;50.10;;;;;;5067854;28;45385;-72
2023/05/19 03:39:45;;;;;;;1.30;1.20;;;17.40;50.10;;;;;;5067431;28;46401;-72
2023/05/19 03:42:12;;;;;;;1.50;1.40;;;17.40;50.20;;;;;;5067432;28;45355;-72
2023/05/19 03:44:39;;;;;;;1.30;1.20;;;17.40;50.20;;;;;;5067662;28;45197;-72
2023/05/19 03:47:06;;;;;;;1.98;1.40;;;17.40;50.10;;;;;;5067605;28;45416;-72
2023/05/19 03:49:34;;;;;;;2.03;1.50;;;17.40;50.30;;;;;;5067123;28;46462;-72
2023/05/19 03:52:02;;;;;;;2.40;1.42;;;17.30;50.20;;;;;;5067041;28;45387;-72
2023/05/19 03:54:28;;;;;;;1.40;1.30;;;17.30;50.30;;;;;;5067395;28;45204;-72
2023/05/19 03:56:55;;;;;;;1.65;1.55;;;17.30;50.30;;;;;;5067532;28;45123;-72
2023/05/19 03:59:23;;;;;;;1.70;1.30;;;17.30;50.30;;;;;;5067078;28;46411;-72
2023/05/19 04:01:50;;;;;;;1.40;1.30;;;17.30;50.40;;;;;;5066226;28;45284;-72
2023/05/19 04:04:16;;;;;;;1.88;1.40;;;17.30;50.40;;;;;;5067418;28;45312;-72
2023/05/19 04:06:45;;;;;;;1.55;1.40;;;17.30;50.40;;;;;;5067396;28;45367;-72
2023/05/19 04:09:13;;;;;;;1.33;1.23;;;17.30;50.40;;;;;;5067029;28;46588;-72
2023/05/19 04:11:40;;;;;;;3.10;1.38;;;17.30;50.40;;;;;;5067172;28;45289;-72
2023/05/19 04:14:06;;;;;;;1.52;1.20;;;17.30;50.50;;;;;;5067200;28;45288;-72
2023/05/19 04:16:33;;;;;;;2.97;1.55;;;17.30;50.40;;;;;;5067495;28;45234;-72
2023/05/19 04:19:00;;;;;;;1.67;1.30;;;17.20;50.50;;;;;;5067105;28;46784;-72
2023/05/19 04:21:27;;;;;;;1.98;1.60;;;17.20;50.50;;;;;;5067078;28;45234;-71
2023/05/19 04:23:56;;;;;;;1.52;1.25;;;17.20;50.50;;;;;;5066939;28;45304;-72
2023/05/19 04:26:25;;;;;;;2.10;1.10;;;17.20;50.50;;;;;;5067062;28;45276;-72
2023/05/19 04:28:52;;;;;;;1.83;1.20;;;17.20;50.50;;;;;;5066785;28;45151;-72
2023/05/19 04:31:20;;;;;;;2.88;1.60;;;17.20;50.50;;;;;;5067079;28;45317;-72
2023/05/19 04:33:48;;;;;;;2.63;1.35;;;17.20;50.60;;;;;;5066870;28;45292;-72
2023/05/19 04:36:19;;;;;;;1.38;1.10;;;17.20;50.60;;;;;;5067090;28;45464;-72
2023/05/19 04:38:46;;;;;;;2.88;1.45;;;17.20;50.60;;;;;;5066582;28;45433;-72
2023/05/19 04:41:15;;;;;;;1.33;1.02;;;17.20;50.60;;;;;;5066067;28;45359;-72
2023/05/19 04:43:43;;;;;;;1.63;1.40;;;17.20;50.60;;;;;;5066513;28;45268;-72
2023/05/19 04:46:11;;;;;;;2.33;1.50;;;17.20;50.70;;;;;;5066809;28;45308;-72
2023/05/19 04:48:38;;;;;;;2.88;1.30;;;17.20;50.70;;;;;;5066306;28;45491;-72
2023/05/19 04:51:06;;;;;;;3.78;1.48;;;17.20;50.60;;;;;;5066411;28;45147;-72
2023/05/19 04:53:33;;;;;;;1.40;1.10;;;17.20;50.60;;;;;;5066712;28;45197;-71
2023/05/19 04:56:00;;;;;;;1.67;1.35;;;17.20;50.60;;;;;;5066825;28;45272;-72
2023/05/19 04:58:28;;;;;;;2.65;1.15;;;17.20;50.60;;;;;;5066405;28;46911;-71
2023/05/19 05:00:56;;;;;;;1.38;1.23;;;17.20;50.60;;;;;;5066322;28;45195;-72
2023/05/19 05:03:23;;;;;;;1.30;1.20;;;17.20;50.60;;;;;;5065972;28;45230;-72
2023/05/19 05:05:50;;;;;;;3.38;1.38;;;17.20;50.60;;;;;;5066470;28;45375;-72
2023/05/19 05:08:21;;;;;;;4.38;1.20;;;17.20;50.80;;;;;;5066390;28;46506;-72
2023/05/19 05:10:49;;;;;;;2.20;1.30;;;17.20;50.50;;;;;;5066202;28;45249;-71
2023/05/19 05:13:17;;;;;;;2.45;1.40;;;17.20;50.50;;;;;;5067926;28;45297;-72
2023/05/19 05:15:46;;;;;;;2.10;1.40;;;17.20;50.50;;;;;;5070201;28;45257;-72
2023/05/19 05:18:13;;;;;;;1.67;1.38;;;17.20;50.60;;;;;;5069727;28;46991;-72
2023/05/19 05:20:41;;;;;;;1.88;1.45;;;17.20;50.50;;;;;;5069860;28;45395;-71
2023/05/19 05:23:09;;;;;;;1.90;1.23;;;17.20;50.50;;;;;;5069843;28;45233;-72
2023/05/19 05:25:36;;;;;;;3.47;1.50;;;17.20;50.50;;;;;;5070138;28;45480;-72
2023/05/19 05:28:04;;;;;;;1.63;1.20;;;17.20;50.50;;;;;;5069554;28;46670;-72
2023/05/19 05:30:31;;;;;;;1.33;1.20;;;17.20;50.50;;;;;;5069853;28;45297;-71
2023/05/19 05:32:59;;;;;;;1.67;1.10;;;17.20;50.50;;;;;;5069700;28;45298;-72
2023/05/19 05:35:26;;;;;;;1.50;1.40;;;17.20;50.50;;;;;;5070045;28;45181;-72
2023/05/19 05:37:53;;;;;;;1.67;1.40;;;17.20;50.50;;;;;;5069346;28;45476;-72
2023/05/19 05:40:20;;;;;;;3.38;1.58;;;17.20;50.50;;;;;;5069741;28;45364;-72
2023/05/19 05:42:46;;;;;;;2.25;1.48;;;17.20;50.50;;;;;;5070090;28;45249;-72
2023/05/19 05:45:13;;;;;;;1.25;1.17;;;17.20;50.50;;;;;;5069672;28;45254;-72
2023/05/19 05:47:40;;;;;;;1.30;1.20;;;17.20;51.00;;;;;;5069515;28;45347;-71
2023/05/19 05:50:10;;;;;;;1.33;1.17;;;17.20;50.50;;;;;;5068903;28;45193;-72
2023/05/19 05:52:37;;;;;;;2.38;1.48;;;17.20;50.50;;;;;;5069464;28;45330;-72
2023/05/19 05:55:05;;;;;;;1.95;1.20;;;17.20;50.40;;;;;;5069490;28;45378;-72
2023/05/19 05:57:34;;;;;;;2.65;1.60;;;17.20;50.50;;;;;;5069015;28;45469;-72
2023/05/19 06:00:01;;;;;;;2.97;1.48;;;17.20;50.40;;;;;;5069074;28;45320;-72
2023/05/19 06:02:28;;;;;;;1.65;1.38;;;17.20;50.40;;;;;;5069064;28;45292;-72
2023/05/19 06:04:55;;;;;;;1.67;1.40;;;17.20;50.50;;;;;;5069268;28;45499;-72
2023/05/19 06:07:24;;;;;;;1.60;1.30;;;17.20;50.50;;;;;;5068751;28;46740;-73
2023/05/19 06:09:51;;;;;;;2.80;1.35;;;17.20;51.10;;;;;;5069050;28;45312;-72
2023/05/19 06:12:17;;;;;;;1.63;1.38;;;17.20;50.50;;;;;;5068990;28;45383;-72
2023/05/19 06:14:44;;;;;;;1.30;1.20;;;17.20;50.50;;;;;;5069247;28;45475;-72
2023/05/19 06:17:11;;;;;;;1.27;1.15;;;17.20;50.50;;;;;;5068727;28;45231;-72
2023/05/19 06:19:38;;;;;;;4.28;1.15;;;17.20;50.50;;;;;;5068607;28;45231;-72
2023/05/19 06:22:05;;;;;;;1.88;1.33;;;17.20;50.40;;;;;;5068964;28;45202;-71
2023/05/19 06:24:33;;;;;;;1.77;1.30;;;17.30;50.50;;;;;;5068398;28;45271;-72
2023/05/19 06:26:59;;;;;;;1.67;1.10;;;17.20;50.40;;;;;;5068661;28;46381;-71
2023/05/19 06:29:26;;;;;;;2.22;1.20;;;17.30;50.50;;;;;;5068495;28;45130;-72
2023/05/19 06:31:53;;;;;;;1.20;1.13;;;17.30;50.40;;;;;;5068893;28;45225;-72
2023/05/19 06:34:20;;;;;;;1.15;1.05;;;17.30;50.40;;;;;;5068353;28;45475;-72
2023/05/19 06:36:47;;;;;;;1.33;1.20;;;17.30;50.40;;;;;;5068272;28;46492;-71
2023/05/19 06:39:14;;;;;;;1.30;1.20;;;17.30;50.40;;;;;;5068392;28;45237;-72
2023/05/19 06:41:42;;;;;;;1.75;1.15;;;17.30;50.40;;;;;;5068444;28;45284;-72
2023/05/19 06:44:08;;;;;;;1.40;1.23;;;17.30;50.40;;;;;;5068741;28;45244;-71
2023/05/19 06:46:35;;;;;;;1.58;1.30;;;17.30;50.40;;;;;;5068434;28;46672;-72
2023/05/19 06:49:02;;;;;;;2.60;1.17;;;17.30;50.40;;;;;;5068490;28;45324;-72
2023/05/19 06:51:30;;;;;;;2.50;1.48;;;17.30;50.40;;;;;;5068316;28;45240;-72
2023/05/19 06:53:57;;;;;;;1.38;1.27;;;17.30;50.40;;;;;;5068666;28;45164;-72
2023/05/19 06:56:23;;;;;;;1.73;1.23;;;17.30;50.40;;;;;;5068237;28;45462;-72
2023/05/19 06:58:52;;;;;;;1.35;1.20;;;17.30;50.40;;;;;;5068381;28;45527;-72
2023/05/19 07:01:18;;;;;;;3.13;1.35;;;17.40;50.40;;;;;;5068137;28;45224;-73
2023/05/19 07:03:45;;;;;;;2.20;1.20;;;17.40;50.50;;;;;;5068240;28;45380;-72
2023/05/19 07:06:12;;;;;;;2.13;1.23;;;17.40;50.40;;;;;;5067956;28;46295;-72
2023/05/19 07:08:39;;;;;;;1.60;1.02;;;17.40;50.50;;;;;;5067901;28;45295;-72
2023/05/19 07:11:06;;;;;;;3.70;1.48;;;17.40;50.50;;;;;;5068228;28;45312;-71
2023/05/19 07:13:33;;;;;;;1.73;1.40;;;17.40;50.50;;;;;;5068187;28;45307;-72
2023/05/19 07:16:01;;;;;;;1.67;1.17;;;17.40;50.50;;;;;;5067308;28;45482;-71
2023/05/19 07:18:30;;;;;;;1.92;1.33;;;17.40;50.50;;;;;;5067530;28;45203;-72
2023/05/19 07:20:57;;;;;;;1.27;1.17;;;17.40;50.40;;;;;;5068066;28;45350;-72
2023/05/19 07:23:24;;;;;;;1.23;1.13;;;17.40;50.40;;;;;;5068177;28;45416;-72
2023/05/19 07:25:54;;;;;;;1.75;1.25;;;17.40;50.40;;;;;;5067676;28;46879;-71
2023/05/19 07:28:21;;;;;;;1.25;1.15;;;17.40;50.30;;;;;;5067661;28;45387;-72
2023/05/19 07:30:48;;;;;;;1.35;1.25;;;17.50;50.40;;;;;;5067784;28;45312;-72
2023/05/19 07:33:16;;;;;;;3.40;1.40;;;17.50;50.40;;;;;;5067787;28;45556;-72
2023/05/19 07:35:44;;;;;;;1.60;1.13;;;17.50;50.30;;;;;;5066611;28;46426;-72
2023/05/19 07:38:11;;;;;;;1.65;1.25;;;17.50;50.40;;;;;;5067726;28;45539;-72
2023/05/19 07:40:37;;;;;;;6.32;1.38;;;17.50;50.30;;;;;;5067534;28;45320;-72
2023/05/19 07:43:04;;;;;;;1.50;1.40;;;17.50;50.30;;;;;;5067737;28;45278;-72
2023/05/19 07:45:31;;;;;;;1.27;1.15;;;17.60;50.40;;;;;;5067321;28;45583;-71
2023/05/19 07:47:58;;;;;;;1.50;1.25;;;17.60;50.40;;;;;;5067774;28;45298;-71
2023/05/19 07:50:26;;;;;;;1.92;1.17;;;17.60;50.30;;;;;;5067736;28;45243;-72
2023/05/19 07:52:53;;;;;;;1.25;1.10;;;17.60;50.30;;;;;;5067569;28;45437;-72
2023/05/19 07:55:21;;;;;;;1.58;1.23;;;17.70;50.20;;;;;;5067355;28;47344;-72
2023/05/19 07:57:48;;;;;;;1.92;1.23;;;17.60;50.20;;;;;;5067585;28;45214;-72
2023/05/19 08:00:16;;;;;;;3.47;1.23;;;17.70;50.20;;;;;;5067190;28;45293;-73
2023/05/19 08:02:43;;;;;;;1.48;1.20;;;17.70;50.20;;;;;;5066906;28;45574;-72
2023/05/19 08:05:10;;;;;;;1.35;1.25;;;17.70;50.20;;;;;;5067309;28;46418;-72
2023/05/19 08:07:38;;;;;;;1.98;1.40;;;17.70;50.20;;;;;;5067126;28;45291;-72
2023/05/19 08:10:05;;;;;;;2.45;1.17;;;17.80;50.20;;;;;;5067221;28;45201;-72
2023/05/19 08:12:32;;;;;;;2.30;1.30;;;17.80;50.20;;;;;;5067418;28;45279;-72
2023/05/19 08:14:59;;;;;;;1.70;1.60;;;17.80;50.20;;;;;;5067163;28;45324;-71
2023/05/19 08:17:26;;;;;;;1.90;1.35;;;17.80;50.20;;;;;;5067199;28;45222;-73
2023/05/19 08:19:53;;;;;;;1.45;1.23;;;17.80;50.20;;;;;;5067243;28;45266;-73
2023/05/19 08:22:20;;;;;;;1.48;1.25;;;17.90;50.20;;;;;;5067886;28;45328;-72
2023/05/19 08:24:48;;;;;;;3.72;1.50;;;17.90;50.90;;;;;;5067073;28;45570;-72
2023/05/19 08:27:15;;;;;;;1.40;1.30;;;17.90;50.20;;;;;;5066940;28;45360;-72
2023/05/19 08:29:42;;;;;;;1.98;1.77;;;18.00;50.30;;;;;;5067233;28;45188;-73
2023/05/19 08:32:09;;;;;;;1.58;1.33;;;18.00;50.40;;;;;;5067195;28;45106;-73
2023/05/19 08:34:35;;;;;;;2.00;1.20;;;18.00;50.40;;;;;;5067076;28;46386;-72
2023/05/19 08:37:02;;;;;;;2.53;1.35;;;18.00;50.40;;;;;;5066751;28;45314;-72
2023/05/19 08:39:31;;;;;;;1.23;1.10;;;18.00;50.30;;;;;;5067147;28;45362;-72
2023/05/19 08:41:59;;;;;;;1.60;1.08;;;18.10;50.40;;;;;;5067135;28;45617;-71
2023/05/19 08:44:26;;;;;;;1.63;1.30;;;18.10;50.30;;;;;;5066562;28;46314;-73
2023/05/19 08:46:53;;;;;;;2.00;1.17;;;18.10;50.30;;;;;;5066227;28;45442;-72
2023/05/19 08:49:23;;;;;;;1.40;1.30;;;18.20;50.40;;;;;;5066744;28;45492;-73
2023/05/19 08:51:57;;;;;;;1.65;1.13;;;18.20;50.40;;;;;;5067167;28;45396;-72
2023/05/19 08:54:25;;;;;;;2.15;1.15;;;18.20;50.40;;;;;;5066534;28;45345;-72
2023/05/19 08:56:52;;;;;;;1.77;1.23;;;18.20;50.40;;;;;;5066667;28;45330;-72
2023/05/19 08:59:20;;;;;;;1.60;1.30;;;18.20;50.50;;;;;;5066764;28;45234;-72
2023/05/19 09:01:47;;;;;;;1.23;1.13;;;18.20;50.40;;;;;;5066470;28;45954;-72
2023/05/19 09:04:14;;;;;;;2.47;1.27;;;18.30;50.50;;;;;;5067044;28;46475;-72
2023/05/19 09:06:41;;;;;;;1.25;1.15;;;18.30;50.50;;;;;;5066599;28;45231;-72
2023/05/19 09:09:08;;;;;;;1.60;1.50;;;18.30;50.50;;;;;;5066485;28;45300;-72
2023/05/19 09:11:36;;;;;;;4.07;1.30;;;18.30;50.50;;;;;;5066651;28;45299;-72
2023/05/19 09:14:03;;;;;;;1.73;1.20;;;18.30;50.40;;;;;;5066148;28;45459;-72
2023/05/19 09:16:32;;;;;;;2.20;1.40;;;18.40;50.50;;;;;;5066430;28;45244;-70
2023/05/19 09:18:59;;;;;;;1.25;1.15;;;18.40;50.40;;;;;;5066455;28;45327;-72
2023/05/19 09:21:30;;;;;;;3.70;1.30;;;18.40;50.40;;;;;;5067054;28;45347;-72
2023/05/19 09:23:57;;;;;;;2.47;1.30;;;18.40;50.40;;;;;;5066692;28;45405;-72
2023/05/19 09:26:24;;;;;;;1.52;1.40;;;18.50;50.40;;;;;;5066234;28;45314;-72
2023/05/19 09:28:51;;;;;;;3.67;1.20;;;18.50;50.40;;;;;;5066111;28;45257;-72
2023/05/19 09:31:18;;;;;;;3.08;1.52;;;18.50;50.50;;;;;;5066504;28;45189;-72
2023/05/19 09:33:46;;;;;;;1.70;1.10;;;18.50;50.30;;;;;;5065555;28;46407;-72
2023/05/19 09:36:13;;;;;;;4.45;1.60;;;18.60;50.50;;;;;;5066032;28;45338;-72
2023/05/19 09:38:40;;;;;;;3.72;1.50;;;18.50;50.30;;;;;;5066182;28;45352;-72
2023/05/19 09:41:07;;;;;;;1.33;1.10;;;18.50;50.30;;;;;;5066140;28;45457;-72
2023/05/19 09:43:35;;;;;;;1.52;1.13;;;18.60;50.20;;;;;;5065883;28;46409;-72
2023/05/19 09:46:03;;;;;;;1.60;1.50;;;18.60;50.30;;;;;;5065877;28;45260;-71
2023/05/19 09:48:30;;;;;;;2.28;1.38;;;18.60;50.20;;;;;;5066058;28;45261;-72
2023/05/19 09:50:59;;;;;;;2.13;1.17;;;18.60;50.20;;;;;;5066389;28;45263;-73
2023/05/19 09:53:26;;;;;;;1.27;1.17;;;18.60;50.10;;;;;;5065943;28;45245;-71
2023/05/19 09:55:56;;;;;;;1.80;1.30;;;18.70;50.20;;;;;;5066045;28;45332;-73
2023/05/19 09:58:23;;;;;;;1.35;1.25;;;18.70;50.10;;;;;;5066116;28;45245;-72
2023/05/19 10:00:51;;;;;;;2.15;1.40;;;18.70;50.10;;;;;;5069301;28;45594;-72
2023/05/19 10:03:18;;;;;;;1.42;1.30;;;18.70;50.10;;;;;;5069395;28;47513;-71
2023/05/19 10:05:45;;;;;;;1.30;1.20;;;18.80;50.00;;;;;;5069172;28;45347;-73
2023/05/19 10:08:16;;;;;;;1.90;1.35;;;18.80;49.90;;;;;;5069193;28;44820;-74
2023/05/19 10:10:43;;;;;;;1.48;1.38;;;18.80;49.90;;;;;;5068536;28;45454;-73
2023/05/19 10:13:10;;;;;;;1.55;1.45;;;18.90;50.10;;;;;;5069022;28;46416;-72
2023/05/19 10:15:37;;;;;;;3.88;1.30;;;18.90;50.10;;;;;;5068945;28;45246;-73
2023/05/19 10:18:04;;;;;;;2.05;1.33;;;18.90;50.20;;;;;;5068974;28;45200;-73
2023/05/19 10:20:31;;;;;;;2.08;1.52;;;18.90;50.20;;;;;;5068637;28;45163;-72
2023/05/19 10:22:57;;;;;;;1.92;1.25;;;18.90;50.20;;;;;;5069048;28;47382;-72
2023/05/19 10:25:26;;;;;;;2.42;1.77;;;18.90;50.30;;;;;;5068987;28;45288;-72
2023/05/19 10:27:54;;;;;;;1.70;1.50;;;18.90;50.20;;;;;;5068987;28;45196;-72
2023/05/19 10:30:26;;;;;;;4.38;1.70;;;18.90;50.20;;;;;;5069168;28;45282;-72
2023/05/19 10:32:53;;;;;;;1.80;1.38;;;18.90;50.20;;;;;;5068372;28;46411;-72
2023/05/19 10:35:54;;;;;;;1.55;1.45;;;19.00;50.30;;;;;;5068655;28;45192;-72
2023/05/19 10:38:33;;;;;;;2.13;1.33;;;19.00;50.10;;;;;;5068937;28;45451;-72
2023/05/19 10:41:05;;;;;;;3.78;1.42;;;19.00;50.00;;;;;;5068804;28;45240;-72
2023/05/19 10:43:40;;;;;;;1.85;1.48;;;19.00;49.90;;;;;;5068404;28;45368;-72
2023/05/19 10:46:07;;;;;;;1.58;1.40;;;19.10;49.90;;;;;;5068427;28;45280;-72
2023/05/19 10:48:34;;;;;;;2.63;1.38;;;19.10;49.90;;;;;;5068473;28;45261;-72
2023/05/19 10:51:01;;;;;;;1.77;1.45;;;19.10;50.00;;;;;;5068829;28;45400;-72
2023/05/19 10:53:31;;;;;;;2.47;1.63;;;19.20;49.80;;;;;;5068217;28;45455;-71
2023/05/19 10:55:58;;;;;;;1.95;1.70;;;19.20;49.70;;;;;;5068384;28;45346;-73
2023/05/19 10:58:40;;;;;;;1.40;1.30;;;19.20;49.70;;;;;;5065710;28;45212;-71
2023/05/19 11:01:08;;;;;;;2.58;1.50;;;19.20;49.70;;;;;;5059480;28;45274;-72
2023/05/19 11:03:44;;;;;;;2.65;1.60;;;19.30;49.70;;;;;;5067956;28;45418;-72
2023/05/19 11:06:20;;;;;;;3.13;1.40;;;19.30;49.60;;;;;;5067984;28;45199;-72
2023/05/19 11:08:51;;;;;;;2.05;1.30;;;19.30;49.60;;;;;;5068094;28;45263;-72
2023/05/19 11:11:18;;;;;;;3.22;1.73;;;19.30;49.70;;;;;;5074188;27;45336;-73
2023/05/19 11:13:50;;;;;;;1.58;1.30;;;19.30;49.60;;;;;;5064028;28;46419;-73
2023/05/19 11:16:19;;;;;;;1.48;1.38;;;19.30;49.60;;;;;;5068000;28;45340;-72
2023/05/19 11:18:49;;;;;;;1.67;1.30;;;19.30;49.60;;;;;;5067993;28;45202;-73
2023/05/19 11:21:16;;;;;;;1.65;1.33;;;19.30;49.50;;;;;;5068361;28;45268;-72
2023/05/19 11:23:42;;;;;;;2.10;1.63;;;19.40;49.60;;;;;;5067877;28;45699;-73
2023/05/19 11:26:09;;;;;;;3.03;1.17;;;19.40;49.40;;;;;;5068038;28;45134;-72
2023/05/19 11:28:36;;;;;;;1.52;1.33;;;19.40;49.50;;;;;;5067721;28;45296;-73
2023/05/19 11:31:06;;;;;;;2.00;1.60;;;19.50;49.60;;;;;;5068159;28;45404;-72
2023/05/19 11:33:33;;;;;;;1.35;1.25;;;19.50;49.40;;;;;;5067560;28;46672;-72
2023/05/19 11:36:00;;;;;;;2.83;1.40;;;19.50;49.30;;;;;;5067216;28;45279;-72
2023/05/19 11:38:28;;;;;;;2.33;1.55;;;19.50;49.30;;;;;;5067900;28;45322;-73
2023/05/19 11:40:55;;;;;;;1.75;1.45;;;19.60;49.40;;;;;;5067731;28;45442;-72
2023/05/19 11:43:25;;;;;;;1.30;1.20;;;19.70;49.30;;;;;;5067429;28;45613;-73
2023/05/19 11:45:53;;;;;;;2.40;1.40;;;19.70;49.00;;;;;;5067682;28;45240;-72
2023/05/19 11:48:22;;;;;;;3.88;1.70;;;19.80;48.90;;;;;;5067559;28;45297;-73
2023/05/19 11:50:49;;;;;;;1.65;1.50;;;19.80;48.90;;;;;;5067928;28;45312;-73
2023/05/19 11:53:18;;;;;;;1.60;1.25;;;19.90;48.80;;;;;;5067136;28;45517;-73
2023/05/19 11:55:45;;;;;;;1.52;1.42;;;20.00;49.20;;;;;;5067516;28;45301;-73
2023/05/19 11:58:12;;;;;;;2.22;1.55;;;20.00;48.50;;;;;;5067613;28;45286;-73
2023/05/19 12:00:40;;;;;;;2.40;1.40;;;20.00;48.60;;;;;;5067439;28;45135;-72
2023/05/19 12:03:06;;;;;;;1.65;1.55;;;20.00;48.70;;;;;;5067148;28;46397;-72
2023/05/19 12:05:36;;;;;;;1.50;1.40;;;20.00;48.90;;;;;;5067262;28;45229;-73
2023/05/19 12:08:05;;;;;;;1.58;1.48;;;20.00;48.90;;;;;;5067195;28;45278;-73
2023/05/19 12:10:34;;;;;;;2.60;1.40;;;20.00;48.80;;;;;;5067342;28;45481;-73
2023/05/19 12:13:01;;;;;;;1.75;1.45;;;20.00;49.00;;;;;;5067024;28;45245;-73
2023/05/19 12:15:28;;;;;;;2.85;1.52;;;20.00;48.90;;;;;;5067068;28;45279;-73
2023/05/19 12:17:56;;;;;;;1.52;1.42;;;20.10;49.60;;;;;;5067307;28;45178;-73
2023/05/19 12:20:23;;;;;;;3.28;1.70;;;20.10;48.90;;;;;;5067305;28;45266;-72
2023/05/19 12:22:51;;;;;;;2.85;1.67;;;20.10;48.90;;;;;;5065536;28;45423;-71
2023/05/19 12:25:18;;;;;;;1.60;1.50;;;20.10;49.10;;;;;;5066434;28;45226;-71
2023/05/19 12:27:47;;;;;;;1.40;1.30;;;20.10;49.00;;;;;;5067139;28;45260;-71
2023/05/19 12:30:14;;;;;;;4.30;1.40;;;20.20;49.00;;;;;;5067059;28;45275;-73
2023/05/19 12:32:41;;;;;;;2.80;1.80;;;20.20;49.00;;;;;;5066609;28;46584;-73
2023/05/19 12:35:08;;;;;;;5.35;1.50;;;20.20;49.00;;;;;;5066826;28;45366;-72
2023/05/19 12:37:35;;;;;;;3.13;1.60;;;20.20;48.90;;;;;;5067060;28;45130;-72
2023/05/19 12:40:04;;;;;;;2.03;1.20;;;20.20;48.90;;;;;;5066951;28;45476;-71
2023/05/19 12:42:31;;;;;;;1.50;1.40;;;20.30;48.90;;;;;;5066626;28;45279;-72
2023/05/19 12:44:58;;;;;;;2.22;1.38;;;20.30;48.80;;;;;;5066536;28;45323;-73
2023/05/19 12:47:30;;;;;;;2.13;1.17;;;20.30;48.80;;;;;;5066836;28;45135;-72
2023/05/19 12:50:00;;;;;;;1.95;1.40;;;20.30;48.70;;;;;;5066810;28;45362;-73
2023/05/19 12:52:28;;;;;;;2.72;1.60;;;20.30;48.80;;;;;;5066533;28;45249;-73